Time;durP1;ratioP1;P1;durP2;ratioP2;P2;SDS_P1;SDS_P2;PMS_P1;PMS_P2;Temp;Humidity;BMP_temperature;BMP_pressure;BME280_temperature;BME280_humidity;BME280_pressure;Samples;Min_cycle;Max_cycle;Signal;HPM_P1;HPM_P2
2022/09/02 00:00:52;;;;;;;6.13;2.28;;;;;;;18.92;44.46;101564.47;5055757;28;20485;-88
2022/09/02 00:03:18;;;;;;;5.75;2.50;;;;;;;18.91;44.57;101562.69;5055865;28;20024;-88
2022/09/02 00:05:44;;;;;;;6.15;2.40;;;;;;;18.82;45.28;101560.13;5059567;28;20053;-88
2022/09/02 00:08:10;;;;;;;4.97;2.25;;;;;;;18.89;45.03;101562.72;5042427;28;20037;-88
2022/09/02 00:10:39;;;;;;;5.70;2.47;;;;;;;18.87;44.76;101561.84;5058990;28;20451;-88
2022/09/02 00:13:06;;;;;;;4.45;2.30;;;;;;;18.81;44.83;101566.41;5058371;28;20035;-87
2022/09/02 00:15:32;;;;;;;5.25;2.30;;;;;;;18.75;45.80;101562.88;5057123;28;20033;-88
2022/09/02 00:17:59;;;;;;;7.57;2.25;;;;;;;18.85;45.12;101562.78;5037439;28;20037;-88
2022/09/02 00:20:26;;;;;;;5.55;2.58;;;;;;;18.83;45.07;101568.13;5055018;28;20040;-88
2022/09/02 00:22:51;;;;;;;6.38;2.30;;;;;;;18.84;45.48;101555.63;5037122;28;20150;-88
2022/09/02 00:25:16;;;;;;;7.13;2.20;;;;;;;18.77;45.33;101554.84;5055097;28;20043;-88
2022/09/02 00:27:42;;;;;;;4.53;2.30;;;;;;;18.72;45.01;101546.84;5037295;28;20060;-88
2022/09/02 00:30:07;;;;;;;3.97;2.30;;;;;;;18.61;45.42;101550.53;5055181;28;20120;-87
2022/09/02 00:32:33;;;;;;;5.75;2.38;;;;;;;18.61;45.80;101550.53;5037449;28;20064;-88
2022/09/02 00:34:58;;;;;;;6.75;2.40;;;;;;;18.59;45.98;101547.00;5054935;28;20032;-88
2022/09/02 00:37:25;;;;;;;4.57;2.22;;;;;;;18.51;46.13;101544.38;5054767;28;20112;-88
2022/09/02 00:39:52;;;;;;;5.10;2.30;;;;;;;18.42;46.07;101545.38;5055141;28;20029;-88
2022/09/02 00:42:18;;;;;;;7.18;2.47;;;;;;;18.45;46.09;101552.47;5055173;28;20085;-87
2022/09/02 00:44:44;;;;;;;3.45;2.30;;;;;;;18.40;46.14;101538.25;5054555;28;20029;-87
2022/09/02 00:47:10;;;;;;;5.25;2.40;;;;;;;18.42;46.25;101534.66;5054216;28;20449;-88
2022/09/02 00:49:39;;;;;;;4.88;2.17;;;;;;;18.38;46.22;101548.09;5054469;28;20114;-88
2022/09/02 00:52:09;;;;;;;6.18;2.47;;;;;;;18.30;46.84;101548.16;5054703;28;20100;-86
2022/09/02 00:54:39;;;;;;;11.27;2.60;;;;;;;18.24;47.06;101550.88;5053985;28;20124;-86
2022/09/02 00:57:14;;;;;;;5.93;2.40;;;;;;;18.17;47.01;101538.50;5036484;28;20397;-86
2022/09/02 01:00:01;;;;;;;6.93;2.53;;;;;;;18.24;46.17;101534.84;5054680;28;20035;-86
2022/09/02 01:02:30;;;;;;;3.20;2.05;;;;;;;18.26;46.45;101538.41;5036299;28;20036;-86
2022/09/02 01:04:57;;;;;;;5.45;2.50;;;;;;;18.17;46.77;101542.06;5036756;28;20036;-86
2022/09/02 01:07:25;;;;;;;5.45;2.40;;;;;;;18.08;47.19;101533.22;5054664;28;20037;-86
2022/09/02 01:09:54;;;;;;;6.72;2.67;;;;;;;18.12;46.87;101527.84;5054560;28;20040;-85
2022/09/02 01:12:20;;;;;;;6.60;2.40;;;;;;;18.20;46.81;101534.00;5053954;28;20356;-87
2022/09/02 01:14:46;;;;;;;8.02;2.47;;;;;;;18.09;47.11;101518.94;5053968;28;20029;-87
2022/09/02 01:17:12;;;;;;;5.28;2.53;;;;;;;18.20;46.65;101528.66;5036013;28;20039;-87
2022/09/02 01:19:44;;;;;;;5.80;2.45;;;;;;;18.18;46.62;101527.75;5053867;28;20061;-87
2022/09/02 01:22:17;;;;;;;;;;;;;;;18.37;45.18;101533.84;5054392;28;20037;-87
2022/09/02 01:24:43;;;;;;;4.60;2.40;;;;;;;18.25;46.66;101532.16;5053953;28;19909;-87
2022/09/02 01:27:08;;;;;;;3.85;2.50;;;;;;;18.24;46.89;101534.84;5054099;28;20028;-87
2022/09/02 01:29:33;;;;;;;4.70;2.30;;;;;;;18.24;46.66;101534.84;5036021;28;20029;-87
2022/09/02 01:31:59;;;;;;;4.10;2.47;;;;;;;18.17;46.97;101534.03;5036430;28;20032;-87
2022/09/02 01:34:24;;;;;;;9.27;2.47;;;;;;;18.15;46.70;101522.44;5053658;28;20064;-87
2022/09/02 01:36:50;;;;;;;4.30;2.30;;;;;;;18.12;46.94;101519.81;5036008;28;20505;-87
2022/09/02 01:39:16;;;;;;;8.13;2.47;;;;;;;18.10;47.13;101526.94;5053302;28;20360;-87
2022/09/02 01:41:41;;;;;;;7.38;2.38;;;;;;;18.08;47.17;101515.41;5053314;28;20124;-87
2022/09/02 01:44:09;;;;;;;5.47;2.40;;;;;;;18.11;47.15;101519.81;5035713;28;20033;-87
2022/09/02 01:46:35;;;;;;;7.80;2.58;;;;;;;18.11;47.25;101518.00;5036190;28;20043;-87
2022/09/02 01:49:00;;;;;;;6.07;2.40;;;;;;;17.99;47.50;101504.78;5053801;28;20115;-88
2022/09/02 01:51:26;;;;;;;5.50;2.40;;;;;;;17.92;47.27;101513.75;5035787;28;20113;-88
2022/09/02 01:53:52;;;;;;;5.85;2.50;;;;;;;17.91;47.63;101509.31;5036028;28;20128;-88
2022/09/02 01:56:17;;;;;;;6.43;2.67;;;;;;;17.83;47.84;101513.84;5053331;28;20406;-87
2022/09/02 01:58:43;;;;;;;4.88;2.63;;;;;;;17.76;47.63;101513.88;5053324;28;20033;-88
2022/09/02 02:01:08;;;;;;;4.53;2.30;;;;;;;17.80;47.80;101512.06;5019608;28;20091;-87
2022/09/02 02:03:35;;;;;;;7.10;2.60;;;;;;;17.76;47.88;101513.00;5035641;28;20395;-88
2022/09/02 02:06:06;;;;;;;6.80;2.60;;;;;;;17.74;47.86;101515.69;5053048;28;20486;-87
2022/09/02 02:08:32;;;;;;;6.72;2.47;;;;;;;17.67;48.12;101516.59;5053669;28;20455;-88
2022/09/02 02:10:57;;;;;;;4.55;2.20;;;;;;;17.60;48.67;101506.88;5053807;28;20116;-87
2022/09/02 02:13:23;;;;;;;9.68;2.80;;;;;;;17.57;48.44;101509.56;5057262;28;20035;-88
2022/09/02 02:15:49;;;;;;;9.13;2.55;;;;;;;17.49;48.31;101504.25;5057454;28;20033;-88
2022/09/02 02:18:15;;;;;;;6.63;2.67;;;;;;;17.45;48.84;101506.97;5057045;28;20044;-87
2022/09/02 02:20:40;;;;;;;6.75;2.63;;;;;;;17.36;48.96;101509.72;5057234;28;20033;-88
2022/09/02 02:23:07;;;;;;;4.80;2.40;;;;;;;17.28;49.61;101515.97;5056935;28;20044;-87
2022/09/02 02:25:33;;;;;;;7.28;2.88;;;;;;;17.20;49.42;101511.56;5057757;28;20033;-87
2022/09/02 02:27:58;;;;;;;5.45;2.63;;;;;;;17.24;49.36;101503.53;5056995;28;20029;-88
2022/09/02 02:30:24;;;;;;;5.55;2.50;;;;;;;17.16;49.55;101502.69;5057390;28;20076;-88
2022/09/02 02:32:49;;;;;;;7.38;2.70;;;;;;;17.19;49.70;101512.47;5056811;28;20029;-86
2022/09/02 02:35:17;;;;;;;5.43;2.70;;;;;;;17.14;49.59;101507.16;5039270;28;20037;-87
2022/09/02 02:37:47;;;;;;;6.18;2.55;;;;;;;17.16;49.66;101507.16;5057286;28;20068;-87
2022/09/02 02:40:14;;;;;;;7.45;2.80;;;;;;;17.09;49.54;101502.75;5057242;28;20029;-87
2022/09/02 02:42:40;;;;;;;6.80;2.70;;;;;;;17.10;49.62;101508.06;5039283;28;20040;-88
2022/09/02 02:45:08;;;;;;;4.85;2.60;;;;;;;17.03;49.48;101509.88;5057198;28;20029;-87
2022/09/02 02:47:36;;;;;;;5.35;2.55;;;;;;;17.05;49.88;101509.00;5056939;28;20194;-87
2022/09/02 02:50:01;;;;;;;4.47;2.60;;;;;;;17.11;50.04;101500.94;5056624;28;20040;-88
2022/09/02 02:52:27;;;;;;;7.72;2.65;;;;;;;17.07;50.45;101492.06;5038871;28;20051;-88
2022/09/02 02:54:52;;;;;;;13.25;2.70;;;;;;;17.09;49.85;101500.09;5056482;28;20045;-88
2022/09/02 02:57:18;;;;;;;3.78;2.55;;;;;;;17.07;49.71;101489.38;5038622;28;20033;-88
2022/09/02 02:59:43;;;;;;;6.95;2.67;;;;;;;17.11;49.85;101504.50;5038830;28;20470;-88
2022/09/02 03:02:08;;;;;;;4.45;2.70;;;;;;;16.99;50.19;101493.88;5039243;28;20123;-88
2022/09/02 03:04:35;;;;;;;4.22;2.67;;;;;;;16.93;50.27;101488.59;5056954;28;20463;-87
2022/09/02 03:07:01;;;;;;;7.28;2.72;;;;;;;16.97;50.26;101501.03;5038968;28;20044;-87
2022/09/02 03:09:27;;;;;;;5.70;2.85;;;;;;;17.03;50.03;101491.19;5058139;28;20084;-87
2022/09/02 03:11:52;;;;;;;5.88;2.53;;;;;;;17.03;50.05;101496.53;5039450;28;20112;-87
2022/09/02 03:14:18;;;;;;;4.53;2.75;;;;;;;16.95;49.95;101487.66;5057482;28;20392;-87
2022/09/02 03:16:43;;;;;;;7.00;2.40;;;;;;;16.96;51.12;101494.81;5040388;28;20029;-87
2022/09/02 03:19:12;;;;;;;4.85;2.60;;;;;;;16.90;50.48;101496.59;5039022;28;20033;-87
2022/09/02 03:21:38;;;;;;;8.52;2.78;;;;;;;16.95;50.37;101494.78;5056613;28;20033;-87
2022/09/02 03:24:04;;;;;;;6.40;2.70;;;;;;;16.94;50.31;101496.56;5054939;28;20068;-86
2022/09/02 03:26:29;;;;;;;8.00;2.80;;;;;;;16.87;50.51;101500.16;5038335;28;20458;-87
2022/09/02 03:28:55;;;;;;;9.30;2.75;;;;;;;16.89;51.39;101497.50;5055983;28;20061;-87
2022/09/02 03:31:22;;;;;;;6.57;2.67;;;;;;;16.83;50.77;101494.84;5056302;28;20029;-87
2022/09/02 03:33:48;;;;;;;6.70;2.53;;;;;;;16.84;50.62;101484.19;5056271;28;20470;-87
2022/09/02 03:36:26;;;;;;;6.13;2.70;;;;;;;16.82;50.28;101493.09;5056481;28;20037;-87
2022/09/02 03:38:52;;;;;;;7.50;2.70;;;;;;;16.78;50.93;101482.41;5037875;28;20025;-87
2022/09/02 03:41:18;;;;;;;4.68;3.00;;;;;;;16.82;50.63;101482.41;5055602;28;20024;-87
2022/09/02 03:43:43;;;;;;;3.97;2.53;;;;;;;16.88;50.76;101488.63;5055907;28;20036;-87
2022/09/02 03:46:09;;;;;;;8.43;2.85;;;;;;;16.90;50.78;101484.13;5055524;28;20375;-87
2022/09/02 03:48:34;;;;;;;7.32;2.60;;;;;;;16.84;50.53;101477.97;5037683;28;20045;-88
2022/09/02 03:51:00;;;;;;;6.95;2.80;;;;;;;16.88;50.54;101477.94;5037687;28;20037;-88
2022/09/02 03:53:25;;;;;;;6.50;2.70;;;;;;;16.85;50.76;101477.06;5055827;28;20051;-86
2022/09/02 03:55:51;;;;;;;5.80;2.75;;;;;;;16.74;51.07;101467.34;5055154;28;20429;-86
2022/09/02 03:58:17;;;;;;;8.20;3.22;;;;;;;16.74;51.05;101471.75;5037550;28;20025;-86
2022/09/02 04:00:43;;;;;;;7.15;2.60;;;;;;;16.69;51.25;101462.84;5037671;28;20037;-88
2022/09/02 04:03:08;;;;;;;6.53;2.88;;;;;;;16.65;51.75;101469.09;5038026;28;20159;-87
2022/09/02 04:05:34;;;;;;;10.80;2.85;;;;;;;16.58;51.64;101470.03;5037477;28;20120;-87
2022/09/02 04:08:01;;;;;;;3.95;2.50;;;;;;;16.52;52.30;101471.81;5020708;28;20112;-87
2022/09/02 04:10:27;;;;;;;9.45;2.97;;;;;;;16.47;51.97;101465.63;5055516;28;20151;-87
2022/09/02 04:12:52;;;;;;;3.78;2.60;;;;;;;16.55;51.93;101470.03;5038123;28;20039;-87
2022/09/02 04:15:19;;;;;;;9.43;2.88;;;;;;;16.56;51.78;101467.34;5055120;28;20116;-87
2022/09/02 04:17:44;;;;;;;7.05;2.90;;;;;;;16.53;51.71;101457.59;5037817;28;20475;-86
2022/09/02 04:20:12;;;;;;;6.68;2.50;;;;;;;16.67;52.04;101462.88;5055060;28;20036;-87
2022/09/02 04:22:37;;;;;;;7.97;2.90;;;;;;;16.63;51.30;101461.13;5054812;28;20437;-87
2022/09/02 04:25:05;;;;;;;5.30;2.85;;;;;;;16.60;51.80;101453.13;5055234;28;20033;-86
2022/09/02 04:27:30;;;;;;;5.60;2.85;;;;;;;16.63;51.40;101458.44;5055221;28;20078;-87
2022/09/02 04:29:56;;;;;;;5.13;2.83;;;;;;;16.60;52.44;101452.22;5054831;28;20037;-87
2022/09/02 04:32:22;;;;;;;5.85;2.95;;;;;;;16.56;51.96;101455.81;5037305;28;20112;-87
2022/09/02 04:34:48;;;;;;;7.70;2.60;;;;;;;16.53;51.84;101456.72;5020002;28;20040;-86
2022/09/02 04:37:14;;;;;;;5.00;3.17;;;;;;;16.43;52.40;101452.28;5054417;28;20444;-87
2022/09/02 04:39:39;;;;;;;6.15;3.05;;;;;;;16.40;52.16;101449.63;5054305;28;20029;-87
2022/09/02 04:42:05;;;;;;;6.60;2.60;;;;;;;16.41;52.18;101454.09;5055207;28;20489;-87
2022/09/02 04:44:31;;;;;;;6.93;2.90;;;;;;;16.47;52.57;101454.06;5054568;28;20053;-87
2022/09/02 04:46:57;;;;;;;6.80;3.10;;;;;;;16.45;52.36;101455.88;5037112;28;20082;-87
2022/09/02 04:49:22;;;;;;;4.18;2.78;;;;;;;16.47;52.08;101459.41;5054484;28;20444;-87
2022/09/02 04:51:48;;;;;;;5.32;2.95;;;;;;;16.39;52.83;101456.75;5054441;28;20029;-87
2022/09/02 04:54:13;;;;;;;5.22;2.97;;;;;;;16.44;52.13;101462.94;5054400;28;20033;-87
2022/09/02 04:56:39;;;;;;;6.93;2.90;;;;;;;16.46;52.31;101455.84;5054438;28;20053;-87
2022/09/02 04:59:05;;;;;;;6.43;2.90;;;;;;;16.50;52.48;101454.94;5054001;28;20033;-87
2022/09/02 05:01:34;;;;;;;5.72;2.70;;;;;;;16.48;52.72;101450.50;5054297;28;20028;-87
2022/09/02 05:04:01;;;;;;;6.90;3.17;;;;;;;16.52;52.67;101454.91;5036092;28;20170;-86
2022/09/02 05:06:28;;;;;;;6.47;2.90;;;;;;;16.52;52.59;101453.13;5020561;28;20056;-87
2022/09/02 05:08:55;;;;;;;8.60;2.97;;;;;;;16.49;52.91;101453.19;5036498;28;20368;-87
2022/09/02 05:11:22;;;;;;;7.75;2.90;;;;;;;16.54;52.52;101458.50;5037033;28;20033;-87
2022/09/02 05:13:50;;;;;;;4.68;3.17;;;;;;;16.62;53.27;101458.47;5054031;28;20107;-87
2022/09/02 05:16:21;;;;;;;9.63;3.00;;;;;;;16.66;52.48;101454.84;5054048;28;20150;-88
2022/09/02 05:18:47;;;;;;;8.90;3.10;;;;;;;16.66;52.35;101462.88;5053773;28;20052;-87
2022/09/02 05:21:13;;;;;;;8.98;3.00;;;;;;;16.71;52.46;101458.41;5054223;28;20040;-87
2022/09/02 05:23:39;;;;;;;10.32;3.10;;;;;;;16.76;52.19;101465.53;5036044;28;20390;-87
2022/09/02 05:26:09;;;;;;;10.98;3.30;;;;;;;16.72;52.37;101452.19;5053918;28;20033;-87
2022/09/02 05:28:35;;;;;;;6.65;2.80;;;;;;;16.82;51.99;101458.38;5035912;28;20025;-87
2022/09/02 05:31:11;;;;;;;6.85;3.10;;;;;;;16.90;52.14;101464.56;5036671;28;20033;-87
2022/09/02 05:33:39;;;;;;;6.35;3.10;;;;;;;16.92;52.06;101470.81;5035802;28;20043;-87
2022/09/02 05:36:08;;;;;;;7.00;2.83;;;;;;;16.96;52.23;101461.88;5035614;28;20487;-87
2022/09/02 05:38:34;;;;;;;8.30;3.10;;;;;;;16.99;52.25;101460.06;5053559;28;20084;-87
2022/09/02 05:41:06;;;;;;;6.95;2.92;;;;;;;17.00;52.21;101458.28;5053463;28;20033;-87
2022/09/02 05:43:34;;;;;;;7.75;2.90;;;;;;;16.99;52.04;101451.16;5053601;28;20025;-87
2022/09/02 05:46:06;;;;;;;10.20;3.03;;;;;;;16.95;52.20;101458.31;5052894;28;20104;-88
2022/09/02 05:51:17;;;;;;;6.93;3.00;;;;;;;17.06;52.14;101462.72;5053810;28;20047;-86
2022/09/02 05:53:43;;;;;;;6.68;2.85;;;;;;;17.06;51.99;101462.72;5053339;28;20116;-86
2022/09/02 05:56:09;;;;;;;5.35;2.85;;;;;;;17.09;52.29;101457.34;5052866;28;20510;-86
2022/09/02 05:58:34;;;;;;;5.07;3.08;;;;;;;17.10;52.33;101457.34;5053375;28;20033;-86
2022/09/02 06:01:06;;;;;;;5.47;3.17;;;;;;;17.10;52.55;101452.00;5053308;28;20033;-86
2022/09/02 06:03:32;;;;;;;7.78;3.10;;;;;;;17.13;52.56;101460.00;5053426;28;20029;-85
2022/09/02 06:05:57;;;;;;;8.52;3.25;;;;;;;17.18;52.09;101458.19;5035727;28;20094;-88
2022/09/02 06:08:23;;;;;;;15.13;3.30;;;;;;;17.17;52.15;101443.06;5053679;28;20037;-82
2022/09/02 06:10:49;;;;;;;5.57;3.05;;;;;;;17.17;52.19;101451.06;5053181;28;20041;-88
2022/09/02 06:13:21;;;;;;;10.63;3.50;;;;;;;17.19;52.32;101449.25;5052940;28;20104;-84
2022/09/02 06:15:47;;;;;;;7.68;3.20;;;;;;;17.22;52.39;101448.38;5036392;28;20040;-83
2022/09/02 06:18:13;;;;;;;6.15;3.00;;;;;;;17.21;52.67;101447.44;5053158;28;20033;-80
2022/09/02 06:20:40;;;;;;;9.13;3.33;;;;;;;17.29;52.41;101458.09;5053147;28;20533;-86
2022/09/02 06:23:05;;;;;;;7.85;3.40;;;;;;;17.23;52.31;101451.00;5052962;28;20486;-86
2022/09/02 06:25:31;;;;;;;7.90;3.75;;;;;;;17.24;52.82;101441.22;5053666;28;20504;-85
2022/09/02 06:27:56;;;;;;;7.18;3.83;;;;;;;17.34;52.50;101450.03;5053234;28;20029;-85
2022/09/02 06:30:22;;;;;;;7.43;3.50;;;;;;;17.37;52.28;101447.34;5052936;28;20123;-85
2022/09/02 06:32:48;;;;;;;9.90;3.58;;;;;;;17.42;52.35;101445.53;5035463;28;20462;-86
2022/09/02 06:35:14;;;;;;;10.32;3.75;;;;;;;17.46;52.07;101452.63;5053081;28;20035;-85
2022/09/02 06:37:40;;;;;;;10.20;3.50;;;;;;;17.53;51.89;101452.56;5053571;28;20040;-85
2022/09/02 06:40:06;;;;;;;6.95;3.53;;;;;;;17.52;52.13;101445.47;5035810;28;20029;-83
2022/09/02 06:42:31;;;;;;;9.73;4.40;;;;;;;17.56;52.03;101442.72;5034986;28;20108;-85
2022/09/02 06:44:56;;;;;;;11.48;3.83;;;;;;;17.58;51.97;101444.50;5053161;28;20029;-87
2022/09/02 06:47:22;;;;;;;8.65;3.78;;;;;;;17.62;51.83;101443.59;5035274;28;20484;-86
2022/09/02 06:49:47;;;;;;;11.20;4.32;;;;;;;17.63;51.46;101442.69;5053425;28;20395;-87
2022/09/02 06:52:13;;;;;;;10.98;4.38;;;;;;;17.71;51.57;101443.50;5035210;28;20442;-88
2022/09/02 06:54:38;;;;;;;9.65;4.47;;;;;;;17.69;51.45;101436.41;5052792;28;20067;-86
2022/09/02 06:57:04;;;;;;;14.07;4.88;;;;;;;17.84;51.42;101443.41;5036933;28;20421;-86
2022/09/02 06:59:29;;;;;;;17.20;4.40;;;;;;;17.85;51.25;101439.84;5056920;28;20442;-85
2022/09/02 07:01:54;;;;;;;13.57;5.20;;;;;;;17.87;51.09;101432.69;5056589;28;20033;-86
2022/09/02 07:07:07;;;;;;;11.95;5.15;;;;;;;18.02;51.01;101437.88;5056579;28;20051;-83
2022/09/02 07:09:32;;;;;;;14.80;5.55;;;;;;;18.02;51.06;101438.75;5056296;28;20029;-82
2022/09/02 07:12:00;;;;;;;16.77;5.50;;;;;;;18.06;51.01;101436.06;5056398;28;20032;-83
2022/09/02 07:14:29;;;;;;;12.68;5.53;;;;;;;18.13;50.89;101432.44;5056226;28;20037;-83
2022/09/02 07:16:58;;;;;;;12.38;6.22;;;;;;;18.19;50.84;101433.22;5039720;28;20079;-83
2022/09/02 07:19:24;;;;;;;15.05;6.00;;;;;;;18.30;50.51;101432.25;5056173;28;20386;-82
2022/09/02 07:21:51;;;;;;;20.52;6.68;;;;;;;18.31;50.94;101434.88;5038897;28;20064;-83
2022/09/02 07:24:17;;;;;;;19.50;7.13;;;;;;;18.31;50.21;101423.31;5038534;28;20033;-82
2022/09/02 07:26:44;;;;;;;15.57;7.00;;;;;;;18.40;50.65;101434.78;5056589;28;20040;-83
2022/09/02 07:29:10;;;;;;;20.23;7.18;;;;;;;18.46;50.27;101434.72;5055685;28;20048;-83
2022/09/02 07:31:37;;;;;;;21.05;7.10;;;;;;;18.53;50.29;101428.34;5038863;28;20029;-83
2022/09/02 07:34:05;;;;;;;22.10;7.40;;;;;;;18.60;49.45;101428.28;5056267;28;20029;-83
2022/09/02 07:36:33;;;;;;;25.00;7.50;;;;;;;18.69;49.58;101422.81;5056000;28;20036;-83
2022/09/02 07:38:59;;;;;;;16.55;7.10;;;;;;;18.77;49.18;101427.19;5055413;28;20482;-83
2022/09/02 07:41:26;;;;;;;20.75;7.88;;;;;;;18.85;49.72;101423.53;5055800;28;20113;-83
2022/09/02 07:43:52;;;;;;;21.67;7.57;;;;;;;18.92;49.73;101423.41;5055459;28;20021;-84
2022/09/02 07:46:18;;;;;;;19.45;8.55;;;;;;;18.97;49.43;101426.91;5055737;28;20029;-84
2022/09/02 07:48:43;;;;;;;20.70;8.77;;;;;;;19.00;48.83;101421.50;5037812;28;20095;-84
2022/09/02 07:51:10;;;;;;;24.15;9.15;;;;;;;19.02;49.29;101426.84;5056210;28;20119;-83
2022/09/02 07:53:35;;;;;;;21.08;8.93;;;;;;;19.09;49.62;101416.91;5038455;28;20033;-84
2022/09/02 07:56:01;;;;;;;23.08;9.30;;;;;;;19.13;49.00;101427.56;5055159;28;20143;-84
2022/09/02 07:58:27;;;;;;;20.92;9.85;;;;;;;19.18;49.56;101431.03;5055430;28;20126;-83
2022/09/02 08:00:55;;;;;;;27.33;9.52;;;;;;;19.19;48.56;101426.59;5055630;28;20082;-83
2022/09/02 08:03:22;;;;;;;27.08;10.23;;;;;;;19.18;48.73;101417.66;5055706;28;20036;-83
2022/09/02 08:05:48;;;;;;;23.33;10.30;;;;;;;19.23;48.73;101426.53;5037572;28;20033;-83
2022/09/02 08:08:16;;;;;;;28.20;10.98;;;;;;;19.32;49.56;101428.16;5038235;28;20120;-83
2022/09/02 08:10:41;;;;;;;26.38;11.15;;;;;;;19.42;48.71;101428.91;5054317;28;20033;-83
2022/09/02 08:13:08;;;;;;;23.88;11.68;;;;;;;19.45;49.27;101427.06;5037309;28;20463;-83
2022/09/02 08:15:35;;;;;;;28.67;11.93;;;;;;;19.55;48.52;101427.78;5037797;28;20060;-83
2022/09/02 08:18:02;;;;;;;31.83;12.02;;;;;;;19.62;49.23;101418.75;5055698;28;20039;-83
2022/09/02 08:20:29;;;;;;;28.60;12.45;;;;;;;19.68;48.64;101428.50;5055091;28;20033;-84
2022/09/02 08:22:55;;;;;;;26.60;11.35;;;;;;;19.74;48.87;101412.28;5037518;28;20044;-84
2022/09/02 08:25:20;;;;;;;24.70;12.20;;;;;;;19.86;48.19;101421.91;5055337;28;20056;-84
2022/09/02 08:27:46;;;;;;;27.27;10.82;;;;;;;19.95;48.46;101414.56;5036875;28;20116;-84
2022/09/02 08:30:12;;;;;;;27.65;10.60;;;;;;;20.07;48.01;101413.44;5055141;28;20029;-83
2022/09/02 08:32:38;;;;;;;28.08;9.88;;;;;;;20.15;47.55;101408.81;5054874;28;20032;-83
2022/09/02 08:35:08;;;;;;;33.65;9.80;;;;;;;20.22;47.68;101405.09;5054830;28;20033;-83
2022/09/02 08:37:35;;;;;;;28.30;9.48;;;;;;;20.31;47.37;101406.72;5054540;28;20025;-83
2022/09/02 08:40:05;;;;;;;21.33;8.50;;;;;;;20.40;47.57;101408.31;5036535;28;20033;-83
2022/09/02 08:42:38;;;;;;;24.38;8.77;;;;;;;20.51;47.30;101398.25;5037478;28;20436;-83
2022/09/02 08:45:12;;;;;;;;;;;;;;;20.68;46.80;101408.63;5037869;28;20412;-83
2022/09/02 08:47:42;;;;;;;17.42;6.82;;;;;;;20.73;46.84;101394.22;5054827;28;19916;-83
2022/09/02 08:50:18;;;;;;;14.15;6.45;;;;;;;20.86;46.94;101392.13;5036688;28;20166;-83
2022/09/02 08:52:55;;;;;;;22.25;6.45;;;;;;;21.04;46.65;101400.69;5054698;28;20116;-85
2022/09/02 08:55:25;;;;;;;16.17;6.10;;;;;;;21.12;46.64;101406.75;5036459;28;20067;-84
2022/09/02 08:57:51;;;;;;;14.27;6.28;;;;;;;21.21;45.77;101398.47;5054691;28;20029;-84
2022/09/02 09:00:17;;;;;;;15.88;5.80;;;;;;;21.32;46.32;101400.91;5054962;28;20466;-84
2022/09/02 09:03:14;;;;;;;16.02;5.63;;;;;;;21.43;45.70;101391.66;5054650;28;20382;-84
2022/09/02 09:06:00;;;;;;;14.23;5.50;;;;;;;21.61;45.79;101400.16;5054692;28;20433;-84
2022/09/02 09:08:47;;;;;;;13.57;6.25;;;;;;;21.69;45.66;101409.81;5054114;28;20433;-84
2022/09/02 09:11:50;;;;;;;11.95;5.88;;;;;;;21.79;45.70;101398.78;5054280;28;20045;-84
2022/09/02 09:14:38;;;;;;;17.92;7.80;;;;;;;21.89;45.02;101406.59;5050766;28;20068;-84
2022/09/02 09:17:29;;;;;;;21.95;8.65;;;;;;;21.91;44.64;101402.03;5054352;28;20032;-84
2022/09/02 09:19:59;;;;;;;21.92;8.05;;;;;;;21.96;44.76;101399.22;5053713;28;20068;-84
2022/09/02 09:22:36;;;;;;;23.33;9.05;;;;;;;22.06;44.56;101395.34;5053971;28;20469;-84
2022/09/02 09:25:05;;;;;;;20.58;8.88;;;;;;;22.18;44.03;101395.06;5036608;28;20032;-84
2022/09/02 09:27:31;;;;;;;20.10;9.00;;;;;;;22.31;44.29;101398.28;5053871;28;20033;-84
2022/09/02 09:29:56;;;;;;;23.23;8.35;;;;;;;22.45;44.76;101396.03;5053942;28;20040;-84
2022/09/02 09:32:28;;;;;;;26.10;10.43;;;;;;;22.47;44.15;101393.28;5054433;28;20029;-84
2022/09/02 09:35:00;;;;;;;31.98;12.02;;;;;;;22.55;42.43;101396.66;5054082;28;20025;-84
2022/09/02 09:37:35;;;;;;;22.73;11.63;;;;;;;22.71;43.15;101389.88;5035962;28;20471;-84
2022/09/02 09:40:22;;;;;;;23.92;11.00;;;;;;;22.91;42.73;101385.69;5053753;28;20032;-82
2022/09/02 09:43:15;;;;;;;30.70;13.05;;;;;;;23.05;42.29;101387.94;5054556;28;20032;-82
2022/09/02 09:45:48;;;;;;;27.25;12.75;;;;;;;23.25;42.46;101382.75;5048474;28;20395;-81
2022/09/02 09:48:29;;;;;;;32.75;13.15;;;;;;;23.36;42.42;101383.28;5053600;28;20021;-82
2022/09/02 09:50:54;;;;;;;35.13;14.23;;;;;;;23.47;41.47;101374.84;5035656;28;20029;-83
2022/09/02 09:53:29;;;;;;;27.10;14.07;;;;;;;23.56;40.61;101379.06;5053577;28;20025;-82
2022/09/02 09:56:00;;;;;;;30.38;14.05;;;;;;;23.68;40.97;101373.22;5036247;28;20378;-82
2022/09/02 09:58:33;;;;;;;26.40;13.05;;;;;;;23.80;40.68;101378.19;5054233;28;20060;-78
2022/09/02 10:01:15;;;;;;;28.50;13.90;;;;;;;23.94;39.98;101378.59;5036405;28;20021;-80
2022/09/02 10:03:49;;;;;;;26.08;12.90;;;;;;;24.09;39.39;101362.78;5020011;28;20037;-82
2022/09/02 10:06:22;;;;;;;29.15;13.07;;;;;;;24.34;39.27;101362.72;5035622;28;20124;-84
2022/09/02 10:08:59;;;;;;;25.33;12.82;;;;;;;24.56;38.35;101362.81;5053322;28;20036;-81
2022/09/02 10:11:35;;;;;;;31.48;12.20;;;;;;;24.79;38.31;101362.75;5053065;28;20037;-78
2022/09/02 10:14:10;;;;;;;22.55;9.93;;;;;;;25.05;37.27;101353.59;5053322;28;20477;-79
2022/09/02 10:16:44;;;;;;;25.67;9.75;;;;;;;25.38;35.73;101351.31;5052975;28;20221;-79
2022/09/02 10:19:39;;;;;;;22.50;9.88;;;;;;;25.54;36.27;101348.84;5053362;28;20037;-79
2022/09/02 10:22:13;;;;;;;18.75;9.52;;;;;;;25.77;35.62;101353.25;5012124;28;20040;-80
2022/09/02 10:24:38;;;;;;;21.83;9.88;;;;;;;25.92;35.25;101354.44;5053360;28;20029;-82
2022/09/02 10:27:10;;;;;;;18.55;8.50;;;;;;;26.14;34.35;101344.38;5053350;28;20025;-75
2022/09/02 10:30:10;;;;;;;19.58;8.43;;;;;;;26.49;33.68;101335.56;5054120;28;20048;-81
2022/09/02 10:32:50;;;;;;;15.45;5.45;;;;;;;26.75;32.33;101337.88;5021351;28;20501;-81
2022/09/02 10:35:50;;;;;;;12.45;4.20;;;;;;;27.01;33.05;101339.31;5040145;28;20107;-81
2022/09/02 10:38:28;;;;;;;13.27;3.90;;;;;;;27.46;32.26;101336.13;5057095;28;20051;-81
2022/09/02 10:41:15;;;;;;;11.45;3.65;;;;;;;27.94;31.30;101326.34;5057576;28;20033;-81
2022/09/02 10:44:17;;;;;;;8.35;3.60;;;;;;;28.07;29.57;101331.13;5057419;28;20383;-81
2022/09/02 10:47:13;;;;;;;10.45;3.60;;;;;;;27.92;28.65;101331.00;5039966;28;20504;-81
2022/09/02 10:49:59;;;;;;;11.88;4.38;;;;;;;27.86;28.83;101336.75;5057608;28;20040;-81
2022/09/02 10:52:37;;;;;;;12.30;5.82;;;;;;;28.04;28.03;101324.00;5057240;28;20071;-81
2022/09/02 10:55:26;;;;;;;13.55;7.50;;;;;;;28.36;29.27;101321.41;5056979;28;20479;-80
2022/09/02 10:58:37;;;;;;;12.15;6.78;;;;;;;28.76;28.96;101313.69;5039080;28;20057;-81
2022/09/02 11:01:05;;;;;;;10.93;5.30;;;;;;;28.90;27.29;101311.00;5030987;28;20403;-80
2022/09/02 11:03:56;;;;;;;16.63;8.35;;;;;;;29.12;28.21;101303.41;5056388;28;20028;-81
2022/09/02 11:06:28;;;;;;;11.73;5.57;;;;;;;29.02;27.48;101304.91;5056763;28;20032;-82
2022/09/02 11:09:01;;;;;;;17.85;5.30;;;;;;;28.78;27.39;101300.84;5056614;28;20029;-80
2022/09/02 11:11:37;;;;;;;13.02;6.10;;;;;;;28.84;27.10;101297.78;5038683;28;20025;-80
2022/09/02 11:14:33;;;;;;;12.93;3.60;;;;;;;28.99;25.93;101302.34;5039000;28;20025;-80
2022/09/02 11:17:05;;;;;;;7.47;3.10;;;;;;;29.05;25.84;101292.97;5056747;28;20096;-80
2022/09/02 11:19:33;;;;;;;17.38;5.07;;;;;;;29.23;25.26;101290.97;5056416;28;20060;-80
2022/09/02 11:22:37;;;;;;;6.07;3.33;;;;;;;29.43;25.04;101287.94;5056399;28;20053;-80
2022/09/02 11:25:22;;;;;;;10.18;3.70;;;;;;;29.73;24.17;101285.19;5056217;28;20025;-80
2022/09/02 11:27:48;;;;;;;10.07;3.00;;;;;;;29.75;23.93;101274.19;5056037;28;20028;-80
2022/09/02 11:30:19;;;;;;;9.43;3.50;;;;;;;29.42;24.45;101275.25;5056131;28;20040;-81
2022/09/02 11:33:09;;;;;;;11.55;4.10;;;;;;;29.40;25.39;101263.59;5056176;28;20025;-78
2022/09/02 11:35:38;;;;;;;9.13;4.82;;;;;;;29.50;25.17;101259.31;5056590;28;20528;-78
2022/09/02 11:38:34;;;;;;;12.20;4.90;;;;;;;29.82;24.78;101265.53;5055992;28;20463;-77